sensor_id;sensor_type;location;lat;lon;timestamp;P1;durP1;ratioP1;P2;durP2;ratioP2
16957;SDS011;8595;52.542;11.974;2023-12-28T00:01:53;10.17;;;6.10;;
16957;SDS011;8595;52.542;11.974;2023-12-28T00:04:21;7.30;;;6.27;;
16957;SDS011;8595;52.542;11.974;2023-12-28T00:06:47;8.17;;;6.33;;
16957;SDS011;8595;52.542;11.974;2023-12-28T00:09:14;8.70;;;6.17;;
16957;SDS011;8595;52.542;11.974;2023-12-28T00:11:41;7.07;;;5.43;;
16957;SDS011;8595;52.542;11.974;2023-12-28T00:14:07;7.70;;;5.37;;
16957;SDS011;8595;52.542;11.974;2023-12-28T00:16:34;9.87;;;5.30;;
16957;SDS011;8595;52.542;11.974;2023-12-28T00:19:02;6.97;;;4.50;;
16957;SDS011;8595;52.542;11.974;2023-12-28T00:21:30;12.13;;;5.27;;
16957;SDS011;8595;52.542;11.974;2023-12-28T00:23:57;8.93;;;4.97;;
16957;SDS011;8595;52.542;11.974;2023-12-28T00:26:24;5.27;;;4.13;;
16957;SDS011;8595;52.542;11.974;2023-12-28T00:28:50;5.20;;;3.37;;
16957;SDS011;8595;52.542;11.974;2023-12-28T00:31:17;6.70;;;3.83;;
16957;SDS011;8595;52.542;11.974;2023-12-28T00:33:44;5.80;;;4.00;;
16957;SDS011;8595;52.542;11.974;2023-12-28T00:36:10;5.90;;;3.70;;
16957;SDS011;8595;52.542;11.974;2023-12-28T00:38:38;7.53;;;4.10;;
16957;SDS011;8595;52.542;11.974;2023-12-28T00:41:05;4.50;;;3.70;;
16957;SDS011;8595;52.542;11.974;2023-12-28T00:43:31;5.83;;;3.70;;
16957;SDS011;8595;52.542;11.974;2023-12-28T00:45:58;6.50;;;3.70;;
16957;SDS011;8595;52.542;11.974;2023-12-28T00:48:25;7.53;;;3.60;;
16957;SDS011;8595;52.542;11.974;2023-12-28T00:50:52;8.00;;;3.90;;
16957;SDS011;8595;52.542;11.974;2023-12-28T00:53:20;6.60;;;5.17;;
16957;SDS011;8595;52.542;11.974;2023-12-28T00:55:48;3.90;;;3.60;;
16957;SDS011;8595;52.542;11.974;2023-12-28T00:58:15;3.80;;;3.40;;
16957;SDS011;8595;52.542;11.974;2023-12-28T01:00:41;3.07;;;2.70;;
16957;SDS011;8595;52.542;11.974;2023-12-28T01:03:08;6.67;;;3.47;;
16957;SDS011;8595;52.542;11.974;2023-12-28T01:05:35;6.27;;;3.47;;
16957;SDS011;8595;52.542;11.974;2023-12-28T01:08:02;5.33;;;2.90;;
16957;SDS011;8595;52.542;11.974;2023-12-28T01:10:29;6.77;;;3.43;;
16957;SDS011;8595;52.542;11.974;2023-12-28T01:12:57;4.10;;;3.10;;
16957;SDS011;8595;52.542;11.974;2023-12-28T01:15:23;4.67;;;3.17;;
16957;SDS011;8595;52.542;11.974;2023-12-28T01:17:50;3.53;;;3.20;;
16957;SDS011;8595;52.542;11.974;2023-12-28T01:20:17;5.93;;;3.20;;
16957;SDS011;8595;52.542;11.974;2023-12-28T01:22:43;3.50;;;3.13;;
16957;SDS011;8595;52.542;11.974;2023-12-28T01:25:10;3.30;;;2.63;;
16957;SDS011;8595;52.542;11.974;2023-12-28T01:27:37;3.50;;;3.03;;
16957;SDS011;8595;52.542;11.974;2023-12-28T01:30:06;3.00;;;2.70;;
16957;SDS011;8595;52.542;11.974;2023-12-28T01:32:33;6.83;;;3.57;;
16957;SDS011;8595;52.542;11.974;2023-12-28T01:34:59;3.93;;;2.77;;
16957;SDS011;8595;52.542;11.974;2023-12-28T01:37:26;3.13;;;2.67;;
16957;SDS011;8595;52.542;11.974;2023-12-28T01:39:55;3.63;;;3.03;;
16957;SDS011;8595;52.542;11.974;2023-12-28T01:42:22;4.23;;;2.80;;
16957;SDS011;8595;52.542;11.974;2023-12-28T01:44:49;4.27;;;2.90;;
16957;SDS011;8595;52.542;11.974;2023-12-28T01:47:17;4.53;;;3.27;;
16957;SDS011;8595;52.542;11.974;2023-12-28T01:49:44;4.70;;;3.03;;
16957;SDS011;8595;52.542;11.974;2023-12-28T01:52:11;6.90;;;3.50;;
16957;SDS011;8595;52.542;11.974;2023-12-28T01:54:37;5.27;;;3.27;;
16957;SDS011;8595;52.542;11.974;2023-12-28T01:57:04;5.57;;;2.93;;
16957;SDS011;8595;52.542;11.974;2023-12-28T01:59:31;3.20;;;2.60;;
16957;SDS011;8595;52.542;11.974;2023-12-28T02:01:58;3.73;;;2.40;;
16957;SDS011;8595;52.542;11.974;2023-12-28T02:04:27;4.20;;;2.80;;
16957;SDS011;8595;52.542;11.974;2023-12-28T02:06:54;5.63;;;2.83;;
16957;SDS011;8595;52.542;11.974;2023-12-28T02:09:22;4.20;;;2.47;;
16957;SDS011;8595;52.542;11.974;2023-12-28T02:11:49;3.83;;;2.30;;
16957;SDS011;8595;52.542;11.974;2023-12-28T02:14:16;3.57;;;2.70;;
16957;SDS011;8595;52.542;11.974;2023-12-28T02:16:44;3.63;;;2.63;;
16957;SDS011;8595;52.542;11.974;2023-12-28T02:19:15;3.40;;;2.43;;
16957;SDS011;8595;52.542;11.974;2023-12-28T02:21:51;2.73;;;2.50;;
16957;SDS011;8595;52.542;11.974;2023-12-28T02:24:20;3.33;;;2.73;;
16957;SDS011;8595;52.542;11.974;2023-12-28T02:26:48;3.80;;;2.63;;
16957;SDS011;8595;52.542;11.974;2023-12-28T02:29:14;2.90;;;2.60;;
16957;SDS011;8595;52.542;11.974;2023-12-28T02:31:42;3.00;;;2.40;;
16957;SDS011;8595;52.542;11.974;2023-12-28T02:34:16;2.77;;;2.20;;
16957;SDS011;8595;52.542;11.974;2023-12-28T02:36:49;3.03;;;2.30;;
16957;SDS011;8595;52.542;11.974;2023-12-28T02:39:16;3.67;;;2.90;;
16957;SDS011;8595;52.542;11.974;2023-12-28T02:41:44;2.95;;;2.45;;
16957;SDS011;8595;52.542;11.974;2023-12-28T02:44:13;3.80;;;2.67;;
16957;SDS011;8595;52.542;11.974;2023-12-28T02:46:40;2.70;;;2.50;;
16957;SDS011;8595;52.542;11.974;2023-12-28T02:49:07;4.93;;;2.40;;
16957;SDS011;8595;52.542;11.974;2023-12-28T02:51:35;4.07;;;2.47;;
16957;SDS011;8595;52.542;11.974;2023-12-28T02:54:02;4.45;;;2.50;;
16957;SDS011;8595;52.542;11.974;2023-12-28T02:56:28;3.90;;;2.13;;
16957;SDS011;8595;52.542;11.974;2023-12-28T02:58:54;6.10;;;2.60;;
16957;SDS011;8595;52.542;11.974;2023-12-28T03:01:22;2.90;;;2.40;;
16957;SDS011;8595;52.542;11.974;2023-12-28T03:03:49;3.60;;;2.30;;
16957;SDS011;8595;52.542;11.974;2023-12-28T03:06:16;2.37;;;2.00;;
16957;SDS011;8595;52.542;11.974;2023-12-28T03:08:42;4.67;;;2.53;;
16957;SDS011;8595;52.542;11.974;2023-12-28T03:11:09;3.83;;;2.60;;
16957;SDS011;8595;52.542;11.974;2023-12-28T03:13:36;5.27;;;2.67;;
16957;SDS011;8595;52.542;11.974;2023-12-28T03:16:02;3.10;;;2.13;;
16957;SDS011;8595;52.542;11.974;2023-12-28T03:18:31;3.33;;;2.40;;
16957;SDS011;8595;52.542;11.974;2023-12-28T03:20:57;2.95;;;2.38;;
16957;SDS011;8595;52.542;11.974;2023-12-28T03:23:24;3.38;;;2.20;;
16957;SDS011;8595;52.542;11.974;2023-12-28T03:25:51;2.70;;;2.45;;
16957;SDS011;8595;52.542;11.974;2023-12-28T03:28:17;3.20;;;2.30;;
16957;SDS011;8595;52.542;11.974;2023-12-28T03:30:45;2.70;;;2.27;;
16957;SDS011;8595;52.542;11.974;2023-12-28T03:33:11;2.60;;;1.93;;
16957;SDS011;8595;52.542;11.974;2023-12-28T03:35:39;4.27;;;3.00;;
16957;SDS011;8595;52.542;11.974;2023-12-28T03:38:06;5.20;;;2.07;;
16957;SDS011;8595;52.542;11.974;2023-12-28T03:40:33;4.47;;;2.37;;
16957;SDS011;8595;52.542;11.974;2023-12-28T03:43:00;2.50;;;2.30;;
16957;SDS011;8595;52.542;11.974;2023-12-28T03:45:26;4.47;;;3.00;;
16957;SDS011;8595;52.542;11.974;2023-12-28T03:47:53;4.63;;;2.63;;
16957;SDS011;8595;52.542;11.974;2023-12-28T03:50:20;3.30;;;3.00;;
16957;SDS011;8595;52.542;11.974;2023-12-28T03:52:48;2.97;;;2.67;;
16957;SDS011;8595;52.542;11.974;2023-12-28T03:55:14;3.77;;;2.80;;
16957;SDS011;8595;52.542;11.974;2023-12-28T03:57:41;3.90;;;2.78;;
16957;SDS011;8595;52.542;11.974;2023-12-28T04:00:11;4.43;;;3.20;;
16957;SDS011;8595;52.542;11.974;2023-12-28T04:02:40;3.30;;;2.13;;
16957;SDS011;8595;52.542;11.974;2023-12-28T04:05:06;2.70;;;2.50;;
16957;SDS011;8595;52.542;11.974;2023-12-28T04:07:33;4.60;;;2.60;;
16957;SDS011;8595;52.542;11.974;2023-12-28T04:10:01;3.17;;;2.83;;
16957;SDS011;8595;52.542;11.974;2023-12-28T04:12:28;2.25;;;2.05;;
16957;SDS011;8595;52.542;11.974;2023-12-28T04:14:55;2.85;;;2.25;;
16957;SDS011;8595;52.542;11.974;2023-12-28T04:17:22;2.63;;;2.40;;
16957;SDS011;8595;52.542;11.974;2023-12-28T04:19:48;3.65;;;2.83;;
16957;SDS011;8595;52.542;11.974;2023-12-28T04:22:15;2.40;;;2.17;;
16957;SDS011;8595;52.542;11.974;2023-12-28T04:24:42;2.88;;;2.58;;
16957;SDS011;8595;52.542;11.974;2023-12-28T04:27:10;6.55;;;3.40;;
16957;SDS011;8595;52.542;11.974;2023-12-28T04:29:37;3.55;;;2.40;;
16957;SDS011;8595;52.542;11.974;2023-12-28T04:32:04;2.63;;;2.42;;
16957;SDS011;8595;52.542;11.974;2023-12-28T04:34:31;4.15;;;3.20;;
16957;SDS011;8595;52.542;11.974;2023-12-28T04:36:58;4.13;;;2.97;;
16957;SDS011;8595;52.542;11.974;2023-12-28T04:39:24;2.85;;;2.55;;
16957;SDS011;8595;52.542;11.974;2023-12-28T04:41:51;3.80;;;2.63;;
16957;SDS011;8595;52.542;11.974;2023-12-28T04:44:20;3.13;;;2.80;;
16957;SDS011;8595;52.542;11.974;2023-12-28T04:46:46;4.05;;;2.80;;
16957;SDS011;8595;52.542;11.974;2023-12-28T04:49:13;2.43;;;2.23;;
16957;SDS011;8595;52.542;11.974;2023-12-28T04:51:42;5.03;;;2.88;;
16957;SDS011;8595;52.542;11.974;2023-12-28T04:54:09;3.27;;;2.70;;
16957;SDS011;8595;52.542;11.974;2023-12-28T04:56:36;4.43;;;2.80;;
16957;SDS011;8595;52.542;11.974;2023-12-28T04:59:03;2.67;;;2.47;;
16957;SDS011;8595;52.542;11.974;2023-12-28T05:01:31;3.77;;;2.70;;
16957;SDS011;8595;52.542;11.974;2023-12-28T05:03:58;4.78;;;2.63;;
16957;SDS011;8595;52.542;11.974;2023-12-28T05:06:27;3.10;;;2.53;;
16957;SDS011;8595;52.542;11.974;2023-12-28T05:08:54;3.23;;;2.80;;
16957;SDS011;8595;52.542;11.974;2023-12-28T05:11:21;4.67;;;2.40;;
16957;SDS011;8595;52.542;11.974;2023-12-28T05:13:47;4.50;;;2.90;;
16957;SDS011;8595;52.542;11.974;2023-12-28T05:16:14;3.30;;;2.47;;
16957;SDS011;8595;52.542;11.974;2023-12-28T05:18:42;3.40;;;2.90;;
16957;SDS011;8595;52.542;11.974;2023-12-28T05:21:08;5.28;;;2.53;;
16957;SDS011;8595;52.542;11.974;2023-12-28T05:23:35;4.18;;;3.28;;
16957;SDS011;8595;52.542;11.974;2023-12-28T05:26:02;5.47;;;3.85;;
16957;SDS011;8595;52.542;11.974;2023-12-28T05:28:29;4.20;;;2.88;;
16957;SDS011;8595;52.542;11.974;2023-12-28T05:30:55;5.03;;;2.70;;
16957;SDS011;8595;52.542;11.974;2023-12-28T05:33:24;4.93;;;2.97;;
16957;SDS011;8595;52.542;11.974;2023-12-28T05:35:51;5.35;;;2.95;;
16957;SDS011;8595;52.542;11.974;2023-12-28T05:38:18;7.40;;;2.97;;
16957;SDS011;8595;52.542;11.974;2023-12-28T05:40:45;4.23;;;2.67;;
16957;SDS011;8595;52.542;11.974;2023-12-28T05:43:11;5.15;;;2.92;;
16957;SDS011;8595;52.542;11.974;2023-12-28T05:45:38;4.55;;;2.55;;
16957;SDS011;8595;52.542;11.974;2023-12-28T05:48:05;5.40;;;2.70;;
16957;SDS011;8595;52.542;11.974;2023-12-28T05:50:32;3.77;;;3.00;;
16957;SDS011;8595;52.542;11.974;2023-12-28T05:53:00;5.13;;;3.10;;
16957;SDS011;8595;52.542;11.974;2023-12-28T05:55:27;3.97;;;3.17;;
16957;SDS011;8595;52.542;11.974;2023-12-28T05:57:54;4.88;;;2.90;;
16957;SDS011;8595;52.542;11.974;2023-12-28T06:00:21;4.60;;;2.80;;
16957;SDS011;8595;52.542;11.974;2023-12-28T06:02:48;3.20;;;2.80;;
16957;SDS011;8595;52.542;11.974;2023-12-28T06:05:16;3.65;;;3.00;;
16957;SDS011;8595;52.542;11.974;2023-12-28T06:07:43;2.97;;;2.73;;
16957;SDS011;8595;52.542;11.974;2023-12-28T06:10:11;3.17;;;2.83;;
16957;SDS011;8595;52.542;11.974;2023-12-28T06:12:38;3.77;;;3.37;;
16957;SDS011;8595;52.542;11.974;2023-12-28T06:15:05;6.70;;;3.13;;
16957;SDS011;8595;52.542;11.974;2023-12-28T06:17:32;5.97;;;3.30;;
16957;SDS011;8595;52.542;11.974;2023-12-28T06:19:59;3.60;;;3.30;;
16957;SDS011;8595;52.542;11.974;2023-12-28T06:22:26;4.23;;;3.10;;
16957;SDS011;8595;52.542;11.974;2023-12-28T06:24:52;4.83;;;3.20;;
16957;SDS011;8595;52.542;11.974;2023-12-28T06:27:21;9.70;;;3.23;;
16957;SDS011;8595;52.542;11.974;2023-12-28T06:29:48;3.72;;;2.85;;
16957;SDS011;8595;52.542;11.974;2023-12-28T06:32:15;3.60;;;3.13;;
16957;SDS011;8595;52.542;11.974;2023-12-28T06:34:42;4.07;;;3.07;;
16957;SDS011;8595;52.542;11.974;2023-12-28T06:37:08;4.67;;;3.60;;
16957;SDS011;8595;52.542;11.974;2023-12-28T06:39:35;4.50;;;3.13;;
16957;SDS011;8595;52.542;11.974;2023-12-28T06:42:02;6.10;;;3.20;;
16957;SDS011;8595;52.542;11.974;2023-12-28T06:44:30;6.60;;;3.13;;
16957;SDS011;8595;52.542;11.974;2023-12-28T06:46:57;3.40;;;3.10;;
16957;SDS011;8595;52.542;11.974;2023-12-28T06:49:24;4.43;;;3.47;;
16957;SDS011;8595;52.542;11.974;2023-12-28T06:51:50;3.60;;;3.30;;
16957;SDS011;8595;52.542;11.974;2023-12-28T06:54:17;5.87;;;3.77;;
16957;SDS011;8595;52.542;11.974;2023-12-28T06:56:44;6.38;;;3.40;;
16957;SDS011;8595;52.542;11.974;2023-12-28T06:59:10;6.87;;;4.57;;
16957;SDS011;8595;52.542;11.974;2023-12-28T07:01:39;6.33;;;4.00;;
16957;SDS011;8595;52.542;11.974;2023-12-28T07:04:05;6.70;;;4.67;;
16957;SDS011;8595;52.542;11.974;2023-12-28T07:06:32;4.10;;;3.70;;
16957;SDS011;8595;52.542;11.974;2023-12-28T07:08:59;4.55;;;3.63;;
16957;SDS011;8595;52.542;11.974;2023-12-28T07:11:26;5.63;;;3.40;;
16957;SDS011;8595;52.542;11.974;2023-12-28T07:13:52;4.10;;;3.30;;
16957;SDS011;8595;52.542;11.974;2023-12-28T07:16:19;4.00;;;3.60;;
16957;SDS011;8595;52.542;11.974;2023-12-28T07:18:47;4.90;;;3.17;;
16957;SDS011;8595;52.542;11.974;2023-12-28T07:21:14;4.40;;;3.00;;
16957;SDS011;8595;52.542;11.974;2023-12-28T07:23:41;4.17;;;3.60;;
16957;SDS011;8595;52.542;11.974;2023-12-28T07:26:08;6.10;;;4.37;;
16957;SDS011;8595;52.542;11.974;2023-12-28T07:28:34;5.37;;;3.67;;
16957;SDS011;8595;52.542;11.974;2023-12-28T07:31:01;5.23;;;3.13;;
16957;SDS011;8595;52.542;11.974;2023-12-28T07:33:28;3.55;;;3.10;;
16957;SDS011;8595;52.542;11.974;2023-12-28T07:35:56;7.47;;;2.90;;
16957;SDS011;8595;52.542;11.974;2023-12-28T07:38:24;3.13;;;2.83;;
16957;SDS011;8595;52.542;11.974;2023-12-28T07:40:51;5.47;;;2.73;;
16957;SDS011;8595;52.542;11.974;2023-12-28T07:43:18;4.00;;;2.83;;
16957;SDS011;8595;52.542;11.974;2023-12-28T07:45:44;3.67;;;3.00;;
16957;SDS011;8595;52.542;11.974;2023-12-28T07:48:11;5.37;;;2.93;;
16957;SDS011;8595;52.542;11.974;2023-12-28T07:50:38;3.97;;;2.90;;
16957;SDS011;8595;52.542;11.974;2023-12-28T07:53:06;4.47;;;2.90;;
16957;SDS011;8595;52.542;11.974;2023-12-28T07:55:32;3.53;;;2.83;;
16957;SDS011;8595;52.542;11.974;2023-12-28T07:58:00;6.93;;;4.63;;
16957;SDS011;8595;52.542;11.974;2023-12-28T08:00:27;4.13;;;2.97;;
16957;SDS011;8595;52.542;11.974;2023-12-28T08:02:54;4.30;;;3.20;;
16957;SDS011;8595;52.542;11.974;2023-12-28T08:05:21;3.57;;;2.93;;
16957;SDS011;8595;52.542;11.974;2023-12-28T08:07:48;3.10;;;2.80;;
16957;SDS011;8595;52.542;11.974;2023-12-28T08:10:16;6.70;;;3.63;;
16957;SDS011;8595;52.542;11.974;2023-12-28T08:12:42;4.37;;;3.13;;
16957;SDS011;8595;52.542;11.974;2023-12-28T08:15:09;5.97;;;3.00;;
16957;SDS011;8595;52.542;11.974;2023-12-28T08:17:35;3.53;;;2.80;;
16957;SDS011;8595;52.542;11.974;2023-12-28T08:20:03;5.40;;;3.25;;
16957;SDS011;8595;52.542;11.974;2023-12-28T08:22:31;5.90;;;3.30;;
16957;SDS011;8595;52.542;11.974;2023-12-28T08:24:58;4.45;;;2.90;;
16957;SDS011;8595;52.542;11.974;2023-12-28T08:27:26;4.17;;;3.23;;
16957;SDS011;8595;52.542;11.974;2023-12-28T08:29:53;3.83;;;2.80;;
16957;SDS011;8595;52.542;11.974;2023-12-28T08:32:19;4.13;;;2.60;;
16957;SDS011;8595;52.542;11.974;2023-12-28T08:34:46;5.10;;;2.77;;
16957;SDS011;8595;52.542;11.974;2023-12-28T08:37:14;3.80;;;2.90;;
16957;SDS011;8595;52.542;11.974;2023-12-28T08:39:40;3.53;;;3.17;;
16957;SDS011;8595;52.542;11.974;2023-12-28T08:42:07;4.83;;;2.67;;
16957;SDS011;8595;52.542;11.974;2023-12-28T08:44:35;3.50;;;2.77;;
16957;SDS011;8595;52.542;11.974;2023-12-28T08:47:02;3.10;;;2.80;;
16957;SDS011;8595;52.542;11.974;2023-12-28T08:49:29;5.03;;;2.97;;
16957;SDS011;8595;52.542;11.974;2023-12-28T08:51:55;4.00;;;2.67;;
16957;SDS011;8595;52.542;11.974;2023-12-28T08:54:22;4.97;;;2.90;;
16957;SDS011;8595;52.542;11.974;2023-12-28T08:56:49;4.27;;;3.10;;
16957;SDS011;8595;52.542;11.974;2023-12-28T08:59:15;3.00;;;2.60;;
16957;SDS011;8595;52.542;11.974;2023-12-28T09:01:43;4.10;;;3.10;;
16957;SDS011;8595;52.542;11.974;2023-12-28T09:04:11;3.30;;;2.60;;
16957;SDS011;8595;52.542;11.974;2023-12-28T09:06:39;7.10;;;3.27;;
16957;SDS011;8595;52.542;11.974;2023-12-28T09:09:05;5.13;;;2.93;;
16957;SDS011;8595;52.542;11.974;2023-12-28T09:11:32;5.37;;;2.93;;
16957;SDS011;8595;52.542;11.974;2023-12-28T09:13:59;3.47;;;2.50;;
16957;SDS011;8595;52.542;11.974;2023-12-28T09:16:26;3.20;;;2.43;;
16957;SDS011;8595;52.542;11.974;2023-12-28T09:18:54;8.15;;;3.38;;
16957;SDS011;8595;52.542;11.974;2023-12-28T09:21:22;3.30;;;2.83;;
16957;SDS011;8595;52.542;11.974;2023-12-28T09:23:48;3.38;;;2.80;;
16957;SDS011;8595;52.542;11.974;2023-12-28T09:26:15;4.05;;;2.80;;
16957;SDS011;8595;52.542;11.974;2023-12-28T09:28:43;3.70;;;2.60;;
16957;SDS011;8595;52.542;11.974;2023-12-28T09:31:10;4.40;;;2.92;;
16957;SDS011;8595;52.542;11.974;2023-12-28T09:33:37;4.60;;;2.45;;
16957;SDS011;8595;52.542;11.974;2023-12-28T09:36:05;5.30;;;3.20;;
16957;SDS011;8595;52.542;11.974;2023-12-28T09:38:33;5.95;;;2.63;;
16957;SDS011;8595;52.542;11.974;2023-12-28T09:41:12;5.68;;;2.83;;
16957;SDS011;8595;52.542;11.974;2023-12-28T09:43:41;3.20;;;2.30;;
16957;SDS011;8595;52.542;11.974;2023-12-28T09:46:19;4.38;;;2.53;;
16957;SDS011;8595;52.542;11.974;2023-12-28T09:48:46;4.18;;;2.45;;
16957;SDS011;8595;52.542;11.974;2023-12-28T09:51:14;6.63;;;3.75;;
16957;SDS011;8595;52.542;11.974;2023-12-28T09:53:42;4.30;;;2.35;;
16957;SDS011;8595;52.542;11.974;2023-12-28T09:56:09;4.50;;;3.30;;
16957;SDS011;8595;52.542;11.974;2023-12-28T09:58:36;2.88;;;1.90;;
16957;SDS011;8595;52.542;11.974;2023-12-28T10:01:03;4.10;;;2.40;;
16957;SDS011;8595;52.542;11.974;2023-12-28T10:03:32;2.58;;;2.33;;
16957;SDS011;8595;52.542;11.974;2023-12-28T10:05:59;3.50;;;2.25;;
16957;SDS011;8595;52.542;11.974;2023-12-28T10:08:26;3.22;;;2.17;;
16957;SDS011;8595;52.542;11.974;2023-12-28T10:10:53;4.82;;;2.45;;
16957;SDS011;8595;52.542;11.974;2023-12-28T10:13:20;4.95;;;2.55;;
16957;SDS011;8595;52.542;11.974;2023-12-28T10:15:47;2.78;;;2.50;;
16957;SDS011;8595;52.542;11.974;2023-12-28T10:18:16;6.55;;;2.90;;
16957;SDS011;8595;52.542;11.974;2023-12-28T10:20:48;5.13;;;3.00;;
16957;SDS011;8595;52.542;11.974;2023-12-28T10:23:15;4.20;;;3.13;;
16957;SDS011;8595;52.542;11.974;2023-12-28T10:25:43;10.75;;;7.65;;
16957;SDS011;8595;52.542;11.974;2023-12-28T10:28:11;7.03;;;5.72;;
16957;SDS011;8595;52.542;11.974;2023-12-28T10:30:37;5.55;;;4.20;;
16957;SDS011;8595;52.542;11.974;2023-12-28T10:33:05;7.55;;;5.85;;
16957;SDS011;8595;52.542;11.974;2023-12-28T10:35:32;8.48;;;4.80;;
16957;SDS011;8595;52.542;11.974;2023-12-28T10:37:59;6.03;;;5.05;;
16957;SDS011;8595;52.542;11.974;2023-12-28T10:40:27;8.50;;;5.63;;
16957;SDS011;8595;52.542;11.974;2023-12-28T10:42:58;4.88;;;2.80;;
16957;SDS011;8595;52.542;11.974;2023-12-28T10:45:28;5.25;;;4.18;;
16957;SDS011;8595;52.542;11.974;2023-12-28T10:48:01;6.25;;;4.15;;
16957;SDS011;8595;52.542;11.974;2023-12-28T10:50:33;4.30;;;2.70;;
16957;SDS011;8595;52.542;11.974;2023-12-28T10:53:06;6.35;;;3.17;;
16957;SDS011;8595;52.542;11.974;2023-12-28T10:55:43;4.43;;;2.75;;
16957;SDS011;8595;52.542;11.974;2023-12-28T10:58:21;4.90;;;3.03;;
16957;SDS011;8595;52.542;11.974;2023-12-28T11:00:58;5.07;;;2.67;;
16957;SDS011;8595;52.542;11.974;2023-12-28T11:03:30;3.70;;;2.20;;
16957;SDS011;8595;52.542;11.974;2023-12-28T11:06:01;3.85;;;2.60;;
16957;SDS011;8595;52.542;11.974;2023-12-28T11:08:31;3.63;;;2.65;;
16957;SDS011;8595;52.542;11.974;2023-12-28T11:10:58;6.22;;;2.70;;
16957;SDS011;8595;52.542;11.974;2023-12-28T11:13:30;3.45;;;2.70;;
16957;SDS011;8595;52.542;11.974;2023-12-28T11:15:58;4.15;;;2.90;;
16957;SDS011;8595;52.542;11.974;2023-12-28T11:18:25;4.25;;;2.47;;
16957;SDS011;8595;52.542;11.974;2023-12-28T11:20:54;3.38;;;2.28;;
16957;SDS011;8595;52.542;11.974;2023-12-28T11:23:21;3.65;;;2.72;;
16957;SDS011;8595;52.542;11.974;2023-12-28T11:25:50;7.35;;;3.47;;
16957;SDS011;8595;52.542;11.974;2023-12-28T11:28:16;9.38;;;3.05;;
16957;SDS011;8595;52.542;11.974;2023-12-28T11:30:46;4.60;;;2.60;;
16957;SDS011;8595;52.542;11.974;2023-12-28T11:33:13;4.60;;;2.47;;
16957;SDS011;8595;52.542;11.974;2023-12-28T11:35:40;4.18;;;3.10;;
16957;SDS011;8595;52.542;11.974;2023-12-28T11:38:08;3.58;;;2.40;;
16957;SDS011;8595;52.542;11.974;2023-12-28T11:40:40;5.13;;;3.00;;
16957;SDS011;8595;52.542;11.974;2023-12-28T11:43:15;5.55;;;2.90;;
16957;SDS011;8595;52.542;11.974;2023-12-28T11:45:48;5.95;;;2.60;;
16957;SDS011;8595;52.542;11.974;2023-12-28T11:48:23;5.75;;;3.25;;
16957;SDS011;8595;52.542;11.974;2023-12-28T11:50:51;5.80;;;2.80;;
16957;SDS011;8595;52.542;11.974;2023-12-28T11:53:23;5.60;;;3.13;;
16957;SDS011;8595;52.542;11.974;2023-12-28T11:55:50;3.92;;;2.35;;
16957;SDS011;8595;52.542;11.974;2023-12-28T11:58:17;7.97;;;3.10;;
16957;SDS011;8595;52.542;11.974;2023-12-28T12:00:44;5.72;;;2.65;;
16957;SDS011;8595;52.542;11.974;2023-12-28T12:03:13;5.50;;;2.80;;
16957;SDS011;8595;52.542;11.974;2023-12-28T12:05:39;4.65;;;2.50;;
16957;SDS011;8595;52.542;11.974;2023-12-28T12:08:06;12.05;;;3.03;;
16957;SDS011;8595;52.542;11.974;2023-12-28T12:10:35;6.43;;;3.22;;
16957;SDS011;8595;52.542;11.974;2023-12-28T12:19:48;5.68;;;3.10;;
16957;SDS011;8595;52.542;11.974;2023-12-28T12:22:18;6.35;;;2.85;;
16957;SDS011;8595;52.542;11.974;2023-12-28T12:24:45;7.93;;;3.40;;
16957;SDS011;8595;52.542;11.974;2023-12-28T12:27:14;6.32;;;3.13;;
16957;SDS011;8595;52.542;11.974;2023-12-28T12:29:41;4.32;;;2.90;;
16957;SDS011;8595;52.542;11.974;2023-12-28T12:32:08;5.47;;;2.72;;
16957;SDS011;8595;52.542;11.974;2023-12-28T12:34:35;5.60;;;2.80;;
16957;SDS011;8595;52.542;11.974;2023-12-28T12:37:03;8.88;;;4.28;;
16957;SDS011;8595;52.542;11.974;2023-12-28T12:39:30;6.78;;;2.40;;
16957;SDS011;8595;52.542;11.974;2023-12-28T12:41:57;8.20;;;2.83;;
16957;SDS011;8595;52.542;11.974;2023-12-28T12:44:24;6.78;;;2.97;;
16957;SDS011;8595;52.542;11.974;2023-12-28T12:46:56;5.53;;;2.35;;
16957;SDS011;8595;52.542;11.974;2023-12-28T12:49:23;6.30;;;2.70;;
16957;SDS011;8595;52.542;11.974;2023-12-28T12:51:50;6.78;;;2.75;;
16957;SDS011;8595;52.542;11.974;2023-12-28T12:54:18;9.25;;;3.33;;
16957;SDS011;8595;52.542;11.974;2023-12-28T12:56:45;4.65;;;2.45;;
16957;SDS011;8595;52.542;11.974;2023-12-28T12:59:13;7.00;;;2.85;;
16957;SDS011;8595;52.542;11.974;2023-12-28T13:01:42;9.93;;;3.03;;
16957;SDS011;8595;52.542;11.974;2023-12-28T13:04:09;6.10;;;3.28;;
16957;SDS011;8595;52.542;11.974;2023-12-28T13:06:36;8.50;;;3.00;;
16957;SDS011;8595;52.542;11.974;2023-12-28T13:09:03;6.85;;;2.80;;
16957;SDS011;8595;52.542;11.974;2023-12-28T13:11:33;6.82;;;2.75;;
16957;SDS011;8595;52.542;11.974;2023-12-28T13:13:59;7.95;;;2.88;;
16957;SDS011;8595;52.542;11.974;2023-12-28T13:16:26;5.60;;;2.92;;
16957;SDS011;8595;52.542;11.974;2023-12-28T13:18:53;13.77;;;3.25;;
16957;SDS011;8595;52.542;11.974;2023-12-28T13:21:19;11.85;;;3.40;;
16957;SDS011;8595;52.542;11.974;2023-12-28T13:23:46;8.85;;;3.40;;
16957;SDS011;8595;52.542;11.974;2023-12-28T13:26:13;8.25;;;3.00;;
16957;SDS011;8595;52.542;11.974;2023-12-28T13:28:41;8.13;;;3.33;;
16957;SDS011;8595;52.542;11.974;2023-12-28T13:31:08;14.32;;;5.00;;
16957;SDS011;8595;52.542;11.974;2023-12-28T13:33:35;7.28;;;3.65;;
16957;SDS011;8595;52.542;11.974;2023-12-28T13:36:01;10.52;;;4.70;;
16957;SDS011;8595;52.542;11.974;2023-12-28T13:38:29;9.57;;;5.10;;
16957;SDS011;8595;52.542;11.974;2023-12-28T13:40:56;9.18;;;3.60;;
16957;SDS011;8595;52.542;11.974;2023-12-28T13:43:22;7.18;;;4.15;;
16957;SDS011;8595;52.542;11.974;2023-12-28T13:45:50;8.95;;;4.10;;
16957;SDS011;8595;52.542;11.974;2023-12-28T13:48:17;9.95;;;3.45;;
16957;SDS011;8595;52.542;11.974;2023-12-28T13:50:43;6.43;;;2.80;;
16957;SDS011;8595;52.542;11.974;2023-12-28T13:53:10;6.93;;;3.10;;
16957;SDS011;8595;52.542;11.974;2023-12-28T13:55:37;7.15;;;3.05;;
16957;SDS011;8595;52.542;11.974;2023-12-28T13:58:04;9.50;;;3.08;;
16957;SDS011;8595;52.542;11.974;2023-12-28T14:00:30;8.63;;;3.15;;
16957;SDS011;8595;52.542;11.974;2023-12-28T14:02:58;8.98;;;2.70;;
16957;SDS011;8595;52.542;11.974;2023-12-28T14:05:25;5.45;;;2.72;;
16957;SDS011;8595;52.542;11.974;2023-12-28T14:07:52;6.35;;;3.00;;
16957;SDS011;8595;52.542;11.974;2023-12-28T14:10:18;10.70;;;3.45;;
16957;SDS011;8595;52.542;11.974;2023-12-28T14:12:45;9.48;;;3.10;;
16957;SDS011;8595;52.542;11.974;2023-12-28T14:15:12;8.55;;;3.28;;
16957;SDS011;8595;52.542;11.974;2023-12-28T14:17:40;6.68;;;2.83;;
16957;SDS011;8595;52.542;11.974;2023-12-28T14:20:09;5.90;;;2.75;;
16957;SDS011;8595;52.542;11.974;2023-12-28T14:22:36;8.15;;;3.08;;
16957;SDS011;8595;52.542;11.974;2023-12-28T14:25:04;8.25;;;3.30;;
16957;SDS011;8595;52.542;11.974;2023-12-28T14:27:31;7.57;;;3.22;;
16957;SDS011;8595;52.542;11.974;2023-12-28T14:29:58;7.20;;;3.10;;
16957;SDS011;8595;52.542;11.974;2023-12-28T14:32:28;5.35;;;2.63;;
16957;SDS011;8595;52.542;11.974;2023-12-28T14:34:55;8.02;;;2.88;;
16957;SDS011;8595;52.542;11.974;2023-12-28T14:37:24;6.13;;;2.60;;
16957;SDS011;8595;52.542;11.974;2023-12-28T14:39:50;7.65;;;2.58;;
16957;SDS011;8595;52.542;11.974;2023-12-28T14:42:17;7.40;;;3.00;;
16957;SDS011;8595;52.542;11.974;2023-12-28T14:44:43;5.55;;;2.55;;
16957;SDS011;8595;52.542;11.974;2023-12-28T14:47:10;10.55;;;2.53;;
16957;SDS011;8595;52.542;11.974;2023-12-28T14:49:37;9.35;;;2.90;;
16957;SDS011;8595;52.542;11.974;2023-12-28T14:52:03;6.88;;;2.40;;
16957;SDS011;8595;52.542;11.974;2023-12-28T14:54:31;8.90;;;3.35;;
16957;SDS011;8595;52.542;11.974;2023-12-28T14:56:58;9.00;;;2.75;;